Time;durP1;ratioP1;P1;durP2;ratioP2;P2;SDS_P1;SDS_P2;PMS_P1;PMS_P2;Temp;Humidity;BMP_temperature;BMP_pressure;BME280_temperature;BME280_humidity;BME280_pressure;Samples;Min_cycle;Max_cycle;Signal;HPM_P1;HPM_P2
2022/04/29 00:00:38;;;;;;;0.20;0.20;;;6.60;99.90;;;;;;5072570;28;20082;-79
2022/04/29 00:03:09;;;;;;;0.10;0.10;;;6.60;99.90;;;;;;5106178;28;20040;-82
2022/04/29 00:05:37;;;;;;;0.10;0.10;;;6.60;99.90;;;;;;5073142;28;20091;-82
2022/04/29 00:08:05;;;;;;;0.10;0.10;;;6.90;99.90;;;;;;5073014;28;20047;-79
2022/04/29 00:10:34;;;;;;;0.10;0.10;;;6.50;99.90;;;;;;5105750;28;20083;-79
2022/04/29 00:13:03;;;;;;;0.20;0.20;;;6.50;99.90;;;;;;5073185;28;20072;-79
2022/04/29 00:15:30;;;;;;;0.10;0.10;;;6.40;99.90;;;;;;5105682;28;20041;-82
2022/04/29 00:17:57;;;;;;;0.20;0.20;;;6.40;99.90;;;;;;5072765;28;20126;-79
2022/04/29 00:20:24;;;;;;;0.10;0.10;;;6.90;99.90;;;;;;5088840;28;20083;-79
2022/04/29 00:22:51;;;;;;;0.10;0.10;;;6.20;99.90;;;;;;5072571;28;20076;-80
2022/04/29 00:25:17;;;;;;;0.10;0.10;;;7.00;99.90;;;;;;5072066;28;20040;-80
2022/04/29 00:27:44;;;;;;;0.20;0.20;;;6.70;99.90;;;;;;5072722;28;20054;-79
2022/04/29 00:30:12;;;;;;;0.20;0.20;;;6.30;99.90;;;;;;5072546;28;20037;-79
2022/04/29 00:32:40;;;;;;;0.20;0.20;;;6.20;99.90;;;;;;5105262;28;20093;-82
2022/04/29 00:35:08;;;;;;;0.20;0.20;;;6.20;99.90;;;;;;5072888;28;20036;-79
2022/04/29 00:37:49;;;;;;;0.20;0.20;;;6.20;99.90;;;;;;5088727;28;20040;-79
2022/04/29 00:40:18;;;;;;;0.17;0.17;;;6.30;99.90;;;;;;5105923;28;20040;-82
2022/04/29 00:42:45;;;;;;;0.10;0.10;;;6.30;99.90;;;;;;5089269;28;20073;-82
2022/04/29 00:45:14;;;;;;;0.20;0.20;;;6.30;99.90;;;;;;5072898;28;20089;-82
2022/04/29 00:47:41;;;;;;;0.10;0.10;;;6.40;99.90;;;;;;5088837;28;20123;-83
2022/04/29 00:50:10;;;;;;;0.20;0.20;;;6.40;99.90;;;;;;5088807;28;20553;-79
2022/04/29 00:52:47;;;;;;;0.10;0.10;;;6.30;99.90;;;;;;5072157;28;20040;-82
2022/04/29 00:55:15;;;;;;;0.13;0.13;;;6.30;99.90;;;;;;5105893;28;20097;-79
2022/04/29 00:57:52;;;;;;;0.20;0.20;;;6.70;99.90;;;;;;5072295;28;20041;-79
2022/04/29 01:00:20;;;;;;;0.10;0.10;;;6.30;99.90;;;;;;5088593;28;20041;-81
2022/04/29 01:02:50;;;;;;;0.15;0.15;;;6.20;99.90;;;;;;5092698;28;20068;-82
2022/04/29 01:05:19;;;;;;;0.10;0.10;;;6.20;99.90;;;;;;5109493;28;20106;-79
2022/04/29 01:07:48;;;;;;;0.10;0.10;;;6.20;99.90;;;;;;5076084;28;20036;-82
2022/04/29 01:10:16;;;;;;;0.10;0.10;;;6.20;99.90;;;;;;5092463;28;20059;-79
2022/04/29 01:12:44;;;;;;;0.20;0.20;;;6.20;99.90;;;;;;5092328;28;20123;-79
2022/04/29 01:15:19;;;;;;;0.10;0.10;;;6.10;99.90;;;;;;5092420;28;20059;-82
2022/04/29 01:17:58;;;;;;;0.20;0.20;;;6.10;99.90;;;;;;5092212;28;20044;-79
2022/04/29 01:20:28;;;;;;;0.10;0.10;;;6.10;99.90;;;;;;5092403;28;20051;-82
2022/04/29 01:22:55;;;;;;;0.20;0.20;;;6.50;99.90;;;;;;5092343;28;20045;-83
2022/04/29 01:25:22;;;;;;;0.20;0.20;;;6.20;99.90;;;;;;5075610;28;20545;-80
2022/04/29 01:27:50;;;;;;;0.10;0.10;;;6.10;99.90;;;;;;5075644;28;20072;-79
2022/04/29 01:30:16;;;;;;;0.10;0.10;;;6.60;99.90;;;;;;5075687;28;20036;-79
2022/04/29 01:32:44;;;;;;;0.20;0.20;;;6.10;99.90;;;;;;5075184;28;20051;-79
2022/04/29 01:35:12;;;;;;;0.20;0.20;;;6.10;99.90;;;;;;5076010;28;20042;-79
2022/04/29 01:37:39;;;;;;;0.10;0.10;;;6.10;99.90;;;;;;5075376;28;20102;-82
2022/04/29 01:40:07;;;;;;;0.10;0.10;;;6.00;99.90;;;;;;5075449;28;20075;-82
2022/04/29 01:42:34;;;;;;;0.13;0.13;;;6.00;99.90;;;;;;5074992;28;20394;-82
2022/04/29 01:45:01;;;;;;;0.13;0.13;;;6.20;99.90;;;;;;5091768;28;20041;-79
2022/04/29 01:47:27;;;;;;;0.13;0.13;;;6.00;99.90;;;;;;5058450;28;20044;-82
2022/04/29 01:49:54;;;;;;;0.10;0.10;;;5.90;99.90;;;;;;5091429;28;20043;-79
2022/04/29 01:52:21;;;;;;;0.20;0.20;;;6.10;99.90;;;;;;5091729;28;20047;-79
2022/04/29 01:54:48;;;;;;;0.10;0.10;;;5.90;99.90;;;;;;5091320;28;20105;-79
2022/04/29 01:57:14;;;;;;;0.20;0.20;;;5.80;99.90;;;;;;5091504;28;20049;-82
2022/04/29 01:59:41;;;;;;;0.20;0.20;;;6.30;99.90;;;;;;5058438;28;20135;-83
2022/04/29 02:02:08;;;;;;;0.10;0.10;;;5.80;99.90;;;;;;5091878;28;20401;-82
2022/04/29 02:04:35;;;;;;;0.10;0.10;;;5.80;99.90;;;;;;5091522;28;20807;-83
2022/04/29 02:07:05;;;;;;;0.10;0.10;;;5.80;99.90;;;;;;5091379;28;20097;-82
2022/04/29 02:09:33;;;;;;;0.10;0.10;;;5.70;99.90;;;;;;5074680;28;20041;-82
2022/04/29 02:12:05;;;;;;;0.10;0.10;;;5.70;99.90;;;;;;5074244;28;20075;-79
2022/04/29 02:14:33;;;;;;;0.20;0.20;;;5.80;99.90;;;;;;5074906;28;20413;-79
2022/04/29 02:17:01;;;;;;;0.20;0.20;;;5.80;99.90;;;;;;5091324;28;20047;-82
2022/04/29 02:19:28;;;;;;;0.20;0.20;;;5.80;99.90;;;;;;5058380;28;20064;-81
2022/04/29 02:21:59;;;;;;;0.20;0.20;;;6.20;99.90;;;;;;5091103;28;20120;-79
2022/04/29 02:24:26;;;;;;;0.10;0.10;;;5.70;99.90;;;;;;5058803;28;20040;-79
2022/04/29 02:26:54;;;;;;;0.10;0.10;;;5.70;99.90;;;;;;5090950;28;20044;-79
2022/04/29 02:29:21;;;;;;;0.13;0.13;;;5.70;99.90;;;;;;5091494;28;20032;-79
2022/04/29 02:31:49;;;;;;;0.20;0.20;;;5.70;99.90;;;;;;5090740;28;20043;-79
2022/04/29 02:34:16;;;;;;;0.10;0.10;;;5.60;99.90;;;;;;5091216;28;20127;-82
2022/04/29 02:36:42;;;;;;;0.10;0.10;;;5.70;99.90;;;;;;5090467;28;20123;-79
2022/04/29 02:39:09;;;;;;;0.10;0.10;;;5.70;99.90;;;;;;5091157;28;20127;-79
2022/04/29 02:41:38;;;;;;;0.20;0.20;;;6.00;99.90;;;;;;5057518;28;20448;-80
2022/04/29 02:44:05;;;;;;;0.20;0.20;;;5.70;99.90;;;;;;5090923;28;20048;-82
2022/04/29 02:46:32;;;;;;;0.20;0.20;;;5.70;99.90;;;;;;5090749;28;20048;-82
2022/04/29 02:48:59;;;;;;;0.10;0.10;;;6.40;99.90;;;;;;5090602;28;20037;-80
2022/04/29 02:51:28;;;;;;;0.10;0.10;;;5.60;99.90;;;;;;5090425;28;20523;-83
2022/04/29 02:53:55;;;;;;;0.10;0.10;;;5.70;99.90;;;;;;5074249;28;20135;-79
2022/04/29 02:56:22;;;;;;;0.20;0.20;;;5.60;99.90;;;;;;5057264;28;20552;-83
2022/04/29 02:58:48;;;;;;;0.10;0.10;;;5.60;99.90;;;;;;5073683;28;20512;-79
2022/04/29 03:01:15;;;;;;;0.10;0.10;;;5.70;99.90;;;;;;5073935;28;20040;-79
2022/04/29 03:03:42;;;;;;;0.20;0.20;;;5.60;99.90;;;;;;5073394;28;20123;-79
2022/04/29 03:06:09;;;;;;;0.10;0.10;;;6.20;99.90;;;;;;5073521;28;20044;-79
2022/04/29 03:08:36;;;;;;;0.15;0.15;;;5.60;99.90;;;;;;5073387;28;20090;-80
2022/04/29 03:11:02;;;;;;;0.10;0.10;;;5.50;99.90;;;;;;5090250;28;20444;-79
2022/04/29 03:13:29;;;;;;;0.10;0.10;;;5.60;99.90;;;;;;5073649;28;20052;-79
2022/04/29 03:15:56;;;;;;;0.10;0.10;;;5.70;99.90;;;;;;5089916;28;20037;-83
2022/04/29 03:18:22;;;;;;;0.20;0.20;;;5.60;99.90;;;;;;5073631;28;20089;-79
2022/04/29 03:20:53;;;;;;;0.10;0.10;;;5.70;99.90;;;;;;5073307;28;20036;-79
2022/04/29 03:23:19;;;;;;;0.20;0.20;;;5.70;99.90;;;;;;5073156;28;20488;-79
2022/04/29 03:25:47;;;;;;;0.10;0.10;;;6.20;99.90;;;;;;5073063;28;20080;-79
2022/04/29 03:28:15;;;;;;;0.20;0.20;;;5.80;99.90;;;;;;5073500;28;20046;-82
2022/04/29 03:30:42;;;;;;;0.10;0.10;;;5.80;99.90;;;;;;5073366;28;20036;-80
2022/04/29 03:33:09;;;;;;;0.10;0.10;;;5.80;99.90;;;;;;5073659;28;20033;-79
2022/04/29 03:35:44;;;;;;;0.20;0.20;;;6.70;99.90;;;;;;5106523;28;20041;-79
2022/04/29 03:38:11;;;;;;;0.10;0.10;;;5.90;99.90;;;;;;5073936;28;20040;-79
2022/04/29 03:40:38;;;;;;;0.10;0.10;;;5.90;99.90;;;;;;5072906;28;20055;-80
2022/04/29 03:43:05;;;;;;;0.10;0.10;;;5.90;99.90;;;;;;5106404;28;20040;-79
2022/04/29 03:45:32;;;;;;;0.15;0.15;;;6.00;99.90;;;;;;5073133;28;20036;-83
2022/04/29 03:47:59;;;;;;;0.10;0.10;;;6.70;99.90;;;;;;5089146;28;20051;-83
2022/04/29 03:50:28;;;;;;;0.20;0.20;;;6.00;99.90;;;;;;5072687;28;20048;-83
2022/04/29 03:52:57;;;;;;;0.10;0.10;;;6.00;99.90;;;;;;5072980;28;20497;-80
2022/04/29 03:55:26;;;;;;;0.10;0.10;;;6.10;99.90;;;;;;5072759;28;20044;-79
2022/04/29 03:57:54;;;;;;;0.20;0.20;;;6.30;99.90;;;;;;5105695;28;20040;-79
2022/04/29 04:00:26;;;;;;;0.20;0.20;;;6.00;99.90;;;;;;5105877;28;20132;-83
2022/04/29 04:02:53;;;;;;;0.13;0.13;;;6.00;99.90;;;;;;5085533;28;20518;-80
2022/04/29 04:05:20;;;;;;;0.10;0.10;;;6.00;99.90;;;;;;5061043;28;20037;-79
2022/04/29 04:07:46;;;;;;;0.10;0.10;;;6.00;99.90;;;;;;5083077;28;20102;-83
2022/04/29 04:10:13;;;;;;;0.20;0.20;;;6.00;99.90;;;;;;5068388;28;20032;-82
2022/04/29 04:12:43;;;;;;;0.10;0.10;;;6.00;99.90;;;;;;5069193;28;20045;-80
2022/04/29 04:15:11;;;;;;;0.17;0.17;;;6.00;99.90;;;;;;5083352;28;20041;-83
2022/04/29 04:17:38;;;;;;;0.20;0.20;;;6.00;99.90;;;;;;5072707;28;20128;-80
2022/04/29 04:20:07;;;;;;;0.20;0.20;;;6.10;99.90;;;;;;5072294;28;20087;-79
2022/04/29 04:22:35;;;;;;;0.20;0.20;;;6.00;99.90;;;;;;5089483;28;20048;-83
2022/04/29 04:25:08;;;;;;;0.15;0.15;;;6.00;99.90;;;;;;5106003;28;20123;-82
2022/04/29 04:27:34;;;;;;;0.10;0.10;;;6.10;99.90;;;;;;5089196;28;20044;-83
2022/04/29 04:30:02;;;;;;;0.10;0.10;;;6.10;99.90;;;;;;5072537;28;20132;-83
2022/04/29 04:32:32;;;;;;;0.10;0.10;;;6.10;99.90;;;;;;5072484;28;20090;-83
2022/04/29 04:35:00;;;;;;;0.10;0.10;;;6.10;99.90;;;;;;5073043;28;20127;-83
2022/04/29 04:37:31;;;;;;;0.20;0.20;;;6.20;99.90;;;;;;5092689;28;20041;-80
2022/04/29 04:40:02;;;;;;;0.20;0.20;;;6.20;99.90;;;;;;5076436;28;20058;-83
2022/04/29 04:42:29;;;;;;;0.10;0.10;;;6.30;99.90;;;;;;5077619;28;20416;-80
2022/04/29 04:44:59;;;;;;;0.13;0.13;;;6.30;99.90;;;;;;5059672;28;20094;-79
2022/04/29 04:47:26;;;;;;;0.20;0.20;;;6.30;99.90;;;;;;5077045;28;20493;-83
2022/04/29 04:49:53;;;;;;;0.10;0.10;;;6.40;99.90;;;;;;5092598;28;20044;-83
2022/04/29 04:52:19;;;;;;;0.10;0.10;;;6.40;99.90;;;;;;5092714;28;20435;-80
2022/04/29 04:54:46;;;;;;;0.20;0.20;;;6.60;99.90;;;;;;5076367;28;20041;-83
2022/04/29 04:57:13;;;;;;;0.10;0.10;;;6.60;99.90;;;;;;5059758;28;20037;-80
2022/04/29 04:59:39;;;;;;;0.20;0.20;;;7.00;99.90;;;;;;5092603;28;20094;-83
2022/04/29 05:02:06;;;;;;;0.10;0.10;;;6.80;99.90;;;;;;5059245;28;20044;-80
2022/04/29 05:04:33;;;;;;;0.10;0.10;;;6.70;99.90;;;;;;5059512;28;20127;-82
2022/04/29 05:07:00;;;;;;;0.10;0.10;;;7.50;99.90;;;;;;5059139;28;20042;-82
2022/04/29 05:09:26;;;;;;;0.20;0.20;;;6.70;99.90;;;;;;5075952;28;20037;-82
2022/04/29 05:11:53;;;;;;;0.20;0.20;;;6.80;99.90;;;;;;5059050;28;20041;-82
2022/04/29 05:14:20;;;;;;;0.20;0.20;;;6.80;99.90;;;;;;5093192;28;20033;-83
2022/04/29 05:16:49;;;;;;;0.10;0.10;;;6.90;99.90;;;;;;5109162;28;20485;-80
2022/04/29 05:19:15;;;;;;;0.10;0.10;;;6.90;99.90;;;;;;5076265;28;20170;-79
2022/04/29 05:21:42;;;;;;;0.17;0.17;;;7.30;99.90;;;;;;5092173;28;20514;-83
2022/04/29 05:24:09;;;;;;;0.10;0.10;;;6.90;99.90;;;;;;5092148;28;20051;-82
2022/04/29 05:26:35;;;;;;;0.20;0.20;;;7.70;99.90;;;;;;5108770;28;20051;-83
2022/04/29 05:29:02;;;;;;;0.10;0.10;;;7.00;99.90;;;;;;5075378;28;20040;-79
2022/04/29 05:31:30;;;;;;;0.20;0.20;;;7.30;99.90;;;;;;5092207;28;20370;-83
2022/04/29 05:33:57;;;;;;;0.10;0.10;;;7.20;99.90;;;;;;5077692;28;20440;-82
2022/04/29 05:36:24;;;;;;;0.15;0.15;;;7.20;99.90;;;;;;5092810;28;20056;-83
2022/04/29 05:44:22;;;;;;;0.10;0.10;;;7.50;99.90;;;;;;5108614;28;20044;-79
2022/04/29 05:46:49;;;;;;;0.10;0.10;;;7.60;99.90;;;;;;5074930;28;20047;-83
2022/04/29 05:49:16;;;;;;;0.10;0.10;;;7.70;99.90;;;;;;5091604;28;20127;-80
2022/04/29 05:51:42;;;;;;;0.10;0.10;;;7.90;99.90;;;;;;5074997;28;20514;-82
2022/04/29 05:54:09;;;;;;;0.20;0.20;;;7.90;99.90;;;;;;5071351;28;20037;-80
2022/04/29 05:56:36;;;;;;;0.10;0.10;;;8.00;99.90;;;;;;5088128;28;20452;-82
2022/04/29 05:59:02;;;;;;;0.20;0.20;;;8.00;99.90;;;;;;5054852;28;20083;-80
2022/04/29 06:01:29;;;;;;;0.10;0.10;;;8.10;99.90;;;;;;5055371;28;20041;-83
2022/04/29 06:03:56;;;;;;;0.10;0.10;;;8.10;99.90;;;;;;5055091;28;20037;-83
2022/04/29 06:06:22;;;;;;;0.10;0.10;;;8.20;99.90;;;;;;5060647;28;20451;-80
2022/04/29 06:08:49;;;;;;;0.10;0.10;;;8.30;99.90;;;;;;5073868;28;20043;-80
2022/04/29 06:11:16;;;;;;;0.10;0.10;;;8.40;99.90;;;;;;5054920;28;20481;-81
2022/04/29 06:13:43;;;;;;;0.10;0.10;;;8.40;99.90;;;;;;5078057;28;20093;-83
2022/04/29 06:16:10;;;;;;;0.10;0.10;;;8.50;99.90;;;;;;5091021;28;20044;-82
2022/04/29 06:18:37;;;;;;;0.10;0.10;;;8.50;99.90;;;;;;5091156;28;20043;-82
2022/04/29 06:21:04;;;;;;;0.10;0.10;;;8.50;99.90;;;;;;5091051;28;20127;-85
2022/04/29 06:23:31;;;;;;;0.20;0.20;;;8.50;99.90;;;;;;5091363;28;20048;-83
2022/04/29 06:25:57;;;;;;;0.10;0.10;;;8.40;99.90;;;;;;5070952;28;20106;-83
2022/04/29 06:28:24;;;;;;;0.10;0.10;;;8.40;99.90;;;;;;5083329;28;20045;-84
2022/04/29 06:30:51;;;;;;;0.10;0.10;;;8.40;99.90;;;;;;5073658;28;20033;-83
2022/04/29 06:33:18;;;;;;;0.10;0.10;;;8.40;99.90;;;;;;5061247;28;20036;-84
2022/04/29 06:35:44;;;;;;;0.10;0.10;;;8.40;99.90;;;;;;5072551;28;20069;-84
2022/04/29 06:38:12;;;;;;;0.10;0.10;;;8.40;99.90;;;;;;5071041;28;20408;-84
2022/04/29 06:40:38;;;;;;;0.15;0.15;;;8.50;99.90;;;;;;5074640;28;20041;-84
2022/04/29 06:43:05;;;;;;;0.10;0.10;;;8.40;99.90;;;;;;5084464;28;20444;-84
2022/04/29 06:45:32;;;;;;;0.10;0.10;;;8.40;99.90;;;;;;5082063;28;20079;-83
2022/04/29 06:47:58;;;;;;;0.10;0.10;;;8.50;99.90;;;;;;5101968;28;20047;-82
2022/04/29 06:50:27;;;;;;;0.10;0.10;;;8.60;99.90;;;;;;5095490;28;20417;-83
2022/04/29 06:52:53;;;;;;;0.10;0.10;;;8.50;99.90;;;;;;5074229;28;20401;-83
2022/04/29 06:55:20;;;;;;;0.20;0.20;;;8.50;99.90;;;;;;5072970;28;20036;-83
2022/04/29 06:57:47;;;;;;;0.10;0.10;;;8.60;99.90;;;;;;5054070;28;20080;-83
2022/04/29 07:00:14;;;;;;;0.10;0.10;;;8.60;99.90;;;;;;5069631;28;20137;-83
2022/04/29 07:02:41;;;;;;;0.10;0.10;;;8.60;99.90;;;;;;5056446;28;20158;-85
2022/04/29 07:05:08;;;;;;;0.13;0.13;;;8.60;99.90;;;;;;5073413;28;20192;-85
2022/04/29 07:07:35;;;;;;;0.10;0.10;;;8.50;99.90;;;;;;5090043;28;20040;-83
2022/04/29 07:10:03;;;;;;;0.10;0.10;;;8.80;99.90;;;;;;5090144;28;20047;-84
2022/04/29 07:12:33;;;;;;;0.10;0.10;;;8.50;99.90;;;;;;5083898;28;20036;-84
2022/04/29 07:15:00;;;;;;;0.10;0.10;;;8.70;99.90;;;;;;5087773;28;20044;-85
2022/04/29 07:17:26;;;;;;;0.10;0.10;;;8.60;99.90;;;;;;5071594;28;20051;-84
2022/04/29 07:19:53;;;;;;;0.10;0.10;;;8.70;99.90;;;;;;5071671;28;20040;-84
2022/04/29 07:22:20;;;;;;;0.43;0.43;;;8.70;99.90;;;;;;5071787;28;20040;-85
2022/04/29 07:24:47;;;;;;;0.10;0.10;;;8.90;99.90;;;;;;5143972;28;20039;-85
2022/04/29 07:27:14;;;;;;;0.10;0.10;;;8.80;99.90;;;;;;5083368;28;20040;-85
2022/04/29 07:29:41;;;;;;;0.10;0.10;;;8.80;99.90;;;;;;5089874;28;20402;-84
2022/04/29 07:32:08;;;;;;;0.10;0.10;;;8.90;99.90;;;;;;5076372;28;20097;-85
2022/04/29 07:42:51;;;;;;;0.30;0.30;;;9.10;99.90;;;;;;5089705;28;20086;-83
2022/04/29 07:45:18;;;;;;;0.10;0.10;;;8.90;99.90;;;;;;5069036;28;20123;-83
2022/04/29 07:47:45;;;;;;;0.08;0.08;;;8.90;99.90;;;;;;5081794;28;20044;-83
2022/04/29 07:50:13;;;;;;;0.10;0.10;;;9.00;99.90;;;;;;5088633;28;20051;-83
2022/04/29 07:52:39;;;;;;;0.20;0.20;;;9.00;99.90;;;;;;5089881;28;20044;-83
2022/04/29 07:55:07;;;;;;;0.35;0.35;;;9.10;99.90;;;;;;5072706;28;20433;-83
2022/04/29 07:57:33;;;;;;;0.10;0.10;;;9.10;99.90;;;;;;5068629;28;20048;-84
2022/04/29 08:00:00;;;;;;;0.10;0.10;;;9.20;99.90;;;;;;5052747;28;20045;-83
2022/04/29 08:02:27;;;;;;;0.10;0.10;;;9.10;99.90;;;;;;5052556;28;20076;-83
2022/04/29 08:04:53;;;;;;;0.10;0.10;;;9.20;99.90;;;;;;5068894;28;20045;-82
2022/04/29 08:07:20;;;;;;;0.10;0.10;;;9.10;99.90;;;;;;5068833;28;20071;-82
2022/04/29 08:09:47;;;;;;;0.10;0.10;;;9.20;99.90;;;;;;5085697;28;20044;-84
2022/04/29 08:12:14;;;;;;;0.10;0.10;;;9.30;99.90;;;;;;5052669;28;20040;-82
2022/04/29 08:14:40;;;;;;;0.15;0.15;;;9.30;99.90;;;;;;5052720;28;20037;-83
2022/04/29 08:17:07;;;;;;;0.00;0.00;;;9.40;99.90;;;;;;5052567;28;20076;-83
2022/04/29 08:19:34;;;;;;;0.10;0.10;;;9.50;99.90;;;;;;5079586;28;20044;-81
2022/04/29 08:22:03;;;;;;;0.10;0.10;;;9.60;99.90;;;;;;5052403;28;20076;-82
2022/04/29 08:24:30;;;;;;;0.10;0.10;;;9.70;99.90;;;;;;5077442;28;20527;-82
2022/04/29 08:26:56;;;;;;;0.10;0.10;;;9.80;99.90;;;;;;5057307;28;20128;-84
2022/04/29 08:29:23;;;;;;;0.10;0.10;;;9.80;99.90;;;;;;5082311;28;20404;-82
2022/04/29 08:31:50;;;;;;;0.10;0.10;;;9.90;99.90;;;;;;5088645;28;20037;-83
2022/04/29 08:34:17;;;;;;;0.10;0.10;;;10.00;99.90;;;;;;5072461;28;20508;-83
2022/04/29 08:36:44;;;;;;;0.10;0.10;;;10.00;99.90;;;;;;5069271;28;20044;-83
2022/04/29 08:39:11;;;;;;;0.10;0.10;;;10.10;99.90;;;;;;5071730;28;20083;-83
2022/04/29 08:41:42;;;;;;;0.10;0.10;;;10.00;99.90;;;;;;5074440;28;20048;-84
2022/04/29 08:44:10;;;;;;;0.10;0.10;;;10.00;99.90;;;;;;5100650;28;20062;-83
2022/04/29 08:46:41;;;;;;;0.10;0.10;;;10.00;99.90;;;;;;5096026;28;20039;-86
2022/04/29 08:49:08;;;;;;;0.20;0.20;;;10.00;99.90;;;;;;5067368;28;20093;-84
2022/04/29 08:51:38;;;;;;;0.10;0.10;;;10.10;99.90;;;;;;5128932;28;20053;-84
2022/04/29 08:54:05;;;;;;;0.10;0.10;;;10.20;99.90;;;;;;5075949;28;20047;-84
2022/04/29 08:59:21;;;;;;;0.10;0.10;;;10.10;99.90;;;;;;5113104;28;20044;-84
2022/04/29 09:01:47;;;;;;;0.10;0.10;;;10.10;99.90;;;;;;5085599;28;20047;-84
2022/04/29 09:04:17;;;;;;;0.10;0.10;;;10.10;99.90;;;;;;5053624;28;20052;-85
2022/04/29 09:06:51;;;;;;;0.10;0.10;;;10.10;99.90;;;;;;5072303;28;20063;-81
2022/04/29 09:09:21;;;;;;;0.10;0.10;;;10.10;99.90;;;;;;5088187;28;20413;-81
2022/04/29 09:11:48;;;;;;;0.10;0.10;;;10.10;99.90;;;;;;5063068;28;20037;-81
2022/04/29 09:14:25;;;;;;;0.10;0.10;;;10.10;99.90;;;;;;5072643;28;20190;-81
2022/04/29 09:16:55;;;;;;;0.10;0.10;;;10.00;99.90;;;;;;5086685;28;20044;-81
2022/04/29 09:19:30;;;;;;;0.20;0.20;;;10.10;99.90;;;;;;5069541;28;20041;-85
2022/04/29 09:22:08;;;;;;;0.10;0.10;;;10.20;99.90;;;;;;5072376;28;20076;-84
2022/04/29 09:24:35;;;;;;;0.10;0.10;;;10.20;99.90;;;;;;5091399;28;20045;-84
2022/04/29 09:27:07;;;;;;;0.03;0.03;;;10.20;99.90;;;;;;5092098;28;20520;-80
2022/04/29 09:29:41;;;;;;;0.40;0.40;;;10.10;99.90;;;;;;5091759;28;20036;-83
2022/04/29 09:32:11;;;;;;;0.08;0.08;;;10.20;99.90;;;;;;5091606;28;20044;-83
2022/04/29 09:34:44;;;;;;;0.10;0.10;;;10.20;99.90;;;;;;5075686;28;20033;-83
2022/04/29 09:37:25;;;;;;;0.10;0.10;;;10.20;99.90;;;;;;5092144;28;20039;-83
2022/04/29 09:40:03;;;;;;;0.10;0.10;;;10.30;99.90;;;;;;5125190;28;20036;-83
2022/04/29 09:42:44;;;;;;;0.10;0.10;;;10.40;99.90;;;;;;5091058;28;20043;-83
2022/04/29 09:45:23;;;;;;;0.10;0.10;;;10.50;99.90;;;;;;5091643;28;20051;-84
2022/04/29 09:47:58;;;;;;;0.10;0.10;;;10.60;99.90;;;;;;5071712;28;20101;-83
2022/04/29 09:50:50;;;;;;;0.10;0.10;;;10.60;99.90;;;;;;5071114;28;20053;-82
2022/04/29 09:53:20;;;;;;;0.10;0.10;;;10.60;99.90;;;;;;5075120;28;20057;-82
2022/04/29 09:56:10;;;;;;;0.10;0.10;;;10.60;99.90;;;;;;5110871;28;20498;-83
2022/04/29 09:58:37;;;;;;;0.10;0.10;;;10.50;99.90;;;;;;5072249;28;20041;-82
2022/04/29 10:01:04;;;;;;;0.00;0.00;;;10.60;99.90;;;;;;5089325;28;20044;-83
2022/04/29 10:03:32;;;;;;;0.10;0.10;;;10.60;99.90;;;;;;5073639;28;20059;-83
2022/04/29 10:06:01;;;;;;;0.05;0.05;;;10.60;99.90;;;;;;5078322;28;20796;-83
2022/04/29 10:08:31;;;;;;;0.10;0.10;;;10.80;99.90;;;;;;5073964;28;20782;-82
2022/04/29 10:10:58;;;;;;;0.00;0.00;;;10.90;99.90;;;;;;5107873;28;20102;-83
2022/04/29 10:13:27;;;;;;;0.10;0.10;;;10.80;99.90;;;;;;5074318;28;20090;-83
2022/04/29 10:15:54;;;;;;;0.08;0.08;;;10.80;99.90;;;;;;5101617;28;20040;-83
2022/04/29 10:21:16;;;;;;;0.20;0.15;;;10.90;99.90;;;;;;5129339;28;20150;-83
2022/04/29 10:23:49;;;;;;;0.00;0.00;;;11.00;99.90;;;;;;5107811;28;20072;-83
2022/04/29 10:26:20;;;;;;;0.00;0.00;;;11.00;99.90;;;;;;5077366;28;20056;-82
2022/04/29 10:28:49;;;;;;;0.10;0.10;;;11.00;99.90;;;;;;5074160;28;20036;-83
2022/04/29 10:31:18;;;;;;;0.00;0.00;;;11.00;99.90;;;;;;5073641;28;20072;-82
2022/04/29 10:33:45;;;;;;;0.10;0.10;;;10.90;99.90;;;;;;5092746;28;20074;-83
2022/04/29 10:36:16;;;;;;;0.03;0.03;;;10.90;99.90;;;;;;5097939;28;20517;-83
2022/04/29 10:38:46;;;;;;;0.00;0.00;;;10.80;99.90;;;;;;5089942;28;20078;-82
2022/04/29 10:41:21;;;;;;;0.15;0.15;;;10.90;99.90;;;;;;5099375;28;20143;-84
2022/04/29 10:43:50;;;;;;;0.00;0.00;;;10.90;99.90;;;;;;5079529;28;20801;-82
2022/04/29 10:46:22;;;;;;;0.10;0.10;;;10.90;99.90;;;;;;5080418;28;20047;-82
2022/04/29 10:48:51;;;;;;;0.10;0.10;;;10.90;99.90;;;;;;5094812;28;20036;-84
2022/04/29 10:51:27;;;;;;;0.10;0.10;;;10.90;99.90;;;;;;5073932;28;20127;-83
2022/04/29 10:53:56;;;;;;;0.10;0.10;;;10.90;99.90;;;;;;5090416;28;20076;-82
2022/04/29 10:56:32;;;;;;;0.10;0.10;;;10.80;99.90;;;;;;5090001;28;20051;-83
2022/04/29 10:59:15;;;;;;;0.10;0.10;;;10.90;99.90;;;;;;5090333;28;20555;-82
2022/04/29 11:01:48;;;;;;;0.10;0.10;;;10.80;99.90;;;;;;5070227;28;20048;-82
2022/04/29 11:04:14;;;;;;;0.10;0.10;;;10.90;99.90;;;;;;5087504;28;20037;-86
2022/04/29 11:06:46;;;;;;;0.10;0.10;;;10.80;99.90;;;;;;5070801;28;20505;-86
2022/04/29 11:09:47;;;;;;;0.00;0.00;;;10.80;99.90;;;;;;5082499;28;20044;-92
2022/04/29 11:12:37;;;;;;;0.00;0.00;;;10.80;99.90;;;;;;5091960;28;20091;-91
2022/04/29 11:15:38;;;;;;;0.10;0.10;;;10.80;99.90;;;;;;5090907;28;20383;-84
2022/04/29 11:18:26;;;;;;;0.00;0.00;;;10.80;99.90;;;;;;5107379;28;20045;-89
2022/04/29 11:20:59;;;;;;;0.00;0.00;;;10.80;99.90;;;;;;5108110;28;20048;-91
2022/04/29 11:26:13;;;;;;;0.10;0.10;;;10.80;99.90;;;;;;5093752;28;20493;-91
2022/04/29 11:28:40;;;;;;;0.10;0.10;;;10.60;99.90;;;;;;5074818;28;20498;-91
2022/04/29 11:31:09;;;;;;;0.10;0.10;;;10.60;99.90;;;;;;5074260;28;20037;-90
2022/04/29 11:33:37;;;;;;;0.05;0.05;;;10.60;99.90;;;;;;5106907;28;20077;-90
2022/04/29 11:36:10;;;;;;;0.00;0.00;;;10.50;99.90;;;;;;5090703;28;20045;-83
2022/04/29 11:38:45;;;;;;;0.10;0.10;;;10.60;99.90;;;;;;5080269;28;20037;-89
2022/04/29 11:41:20;;;;;;;0.10;0.10;;;10.60;99.90;;;;;;5088204;28;20498;-90
2022/04/29 11:43:51;;;;;;;0.10;0.10;;;10.50;99.90;;;;;;5055023;28;20095;-90
2022/04/29 11:46:20;;;;;;;0.10;0.10;;;10.70;99.90;;;;;;5053967;28;20036;-84
2022/04/29 11:48:55;;;;;;;0.10;0.10;;;10.70;99.90;;;;;;5071383;28;20037;-90
2022/04/29 11:51:22;;;;;;;0.10;0.10;;;10.60;99.90;;;;;;5069658;28;20151;-89
2022/04/29 11:53:53;;;;;;;0.10;0.10;;;10.50;99.90;;;;;;5070492;28;20110;-84
2022/04/29 11:56:20;;;;;;;0.10;0.10;;;10.50;99.90;;;;;;5070656;28;20052;-89
2022/04/29 11:58:47;;;;;;;0.05;0.05;;;10.60;99.90;;;;;;5070538;28;20049;-88
2022/04/29 12:01:19;;;;;;;0.10;0.10;;;10.60;99.90;;;;;;5086761;28;20045;-89
2022/04/29 12:03:50;;;;;;;0.10;0.10;;;10.50;99.90;;;;;;5054842;28;20041;-85
2022/04/29 12:06:16;;;;;;;0.10;0.10;;;10.50;99.90;;;;;;5053959;28;20037;-84
2022/04/29 12:08:44;;;;;;;0.10;0.10;;;10.50;99.90;;;;;;5053960;28;20049;-84
2022/04/29 12:11:11;;;;;;;0.10;0.10;;;10.50;99.90;;;;;;5054434;28;20037;-89
2022/04/29 12:13:37;;;;;;;0.28;0.28;;;10.50;99.90;;;;;;5053274;28;20041;-84
2022/04/29 12:16:05;;;;;;;0.10;0.10;;;10.60;99.90;;;;;;5053803;28;20037;-89
2022/04/29 12:18:45;;;;;;;0.10;0.10;;;10.60;99.90;;;;;;5053439;28;20497;-89
2022/04/29 12:21:20;;;;;;;0.00;0.00;;;10.70;99.90;;;;;;5086753;28;20045;-90
2022/04/29 12:23:47;;;;;;;0.10;0.10;;;10.80;99.90;;;;;;5070463;28;20048;-84
2022/04/29 12:26:14;;;;;;;0.10;0.10;;;10.80;99.90;;;;;;5052852;28;20516;-84
2022/04/29 12:28:41;;;;;;;0.10;0.10;;;10.90;99.90;;;;;;5052845;28;20044;-84
2022/04/29 12:36:53;;;;;;;0.10;0.10;;;11.00;99.90;;;;;;5085970;28;20044;-89
2022/04/29 12:39:24;;;;;;;0.25;0.10;;;11.00;99.90;;;;;;5086691;28;20051;-83
2022/04/29 12:41:59;;;;;;;0.10;0.10;;;11.00;99.90;;;;;;5053521;28;20044;-89
2022/04/29 12:47:24;;;;;;;0.20;0.10;;;10.90;99.90;;;;;;5072277;28;20041;-89
2022/04/29 12:49:52;;;;;;;0.10;0.10;;;10.90;99.90;;;;;;5053633;28;20040;-88
2022/04/29 12:52:19;;;;;;;0.10;0.10;;;11.00;99.90;;;;;;5069510;28;20056;-84
2022/04/29 12:54:46;;;;;;;0.00;0.00;;;11.00;99.90;;;;;;5052575;28;20049;-90
2022/04/29 12:57:13;;;;;;;0.10;0.10;;;11.10;99.90;;;;;;5071555;28;20106;-89
2022/04/29 12:59:39;;;;;;;0.05;0.05;;;11.10;99.90;;;;;;5073485;28;20421;-84
2022/04/29 13:02:07;;;;;;;0.00;0.00;;;11.00;99.90;;;;;;5073882;28;20040;-84
2022/04/29 13:04:34;;;;;;;0.00;0.00;;;10.90;99.90;;;;;;5056274;28;20141;-84
2022/04/29 13:07:00;;;;;;;0.10;0.10;;;10.90;99.90;;;;;;5074301;28;20126;-84
2022/04/29 13:09:28;;;;;;;0.00;0.00;;;11.00;99.90;;;;;;5057066;28;20036;-84
2022/04/29 13:11:54;;;;;;;0.00;0.00;;;11.00;99.90;;;;;;5055815;28;20766;-90
2022/04/29 13:14:21;;;;;;;0.10;0.10;;;11.00;99.90;;;;;;5074308;28;20037;-89
2022/04/29 13:16:50;;;;;;;0.10;0.10;;;11.00;99.90;;;;;;5057409;28;20490;-89
2022/04/29 13:19:17;;;;;;;0.05;0.05;;;11.00;99.90;;;;;;5057218;28;20033;-85
2022/04/29 13:21:44;;;;;;;0.10;0.10;;;11.00;99.90;;;;;;5055870;28;20429;-88
2022/04/29 13:24:11;;;;;;;0.10;0.10;;;11.10;99.90;;;;;;5056550;28;20047;-89
2022/04/29 13:26:38;;;;;;;0.10;0.10;;;11.20;99.90;;;;;;5072937;28;20037;-84
2022/04/29 13:29:04;;;;;;;0.10;0.10;;;11.20;99.90;;;;;;5056390;28;20410;-89
2022/04/29 13:31:31;;;;;;;0.10;0.10;;;11.10;99.90;;;;;;5056934;28;20045;-90